createdAt,value
2022-11-19T00:22:39.318Z,2
2022-11-19T00:35:00.800Z,1
2022-11-19T00:45:54.355Z,1
2022-11-19T00:48:22.614Z,2
2022-11-19T00:58:46.311Z,1
2022-11-19T00:59:45.735Z,2
2022-11-19T01:12:59.944Z,2
2022-11-19T01:18:48.032Z,1
2022-11-19T01:21:16.501Z,1
2022-11-19T01:28:26.172Z,1
2022-11-19T01:47:27.919Z,2
2022-11-19T01:59:49.422Z,2
2022-11-19T02:13:25.088Z,2
2022-11-19T02:25:46.654Z,2
2022-11-19T02:42:58.546Z,2
2022-11-19T02:51:14.791Z,2
2022-11-19T02:56:11.368Z,2
2022-11-19T03:03:37.128Z,2
2022-11-19T03:12:01.450Z,1
2022-11-19T03:14:29.822Z,1
2022-11-19T03:31:48.636Z,0
2022-11-19T03:39:13.617Z,0
2022-11-19T03:53:20.565Z,1
2022-11-19T04:02:31.251Z,1
2022-11-19T05:06:45.945Z,1
2022-11-19T05:11:43.973Z,1
2022-11-19T05:25:32.138Z,1
2022-11-19T05:35:25.324Z,1
2022-11-19T05:37:53.629Z,1
2022-11-19T05:40:21.921Z,1
2022-11-19T06:01:53.946Z,1
2022-11-19T06:03:38.064Z,1
2022-11-19T06:13:31.297Z,1
2022-11-19T06:37:58.358Z,1
2022-11-19T06:41:26.131Z,1
2022-11-19T06:45:23.233Z,1
2022-11-19T06:48:51.020Z,1
2022-11-19T06:55:33.455Z,1
2022-11-19T06:59:30.417Z,1
2022-11-19T07:02:58.380Z,1
2022-11-19T07:11:07.689Z,1
2022-11-19T07:25:26.206Z,1
2022-11-19T07:30:22.769Z,1
2022-11-19T07:39:33.354Z,1
2022-11-19T07:47:56.285Z,7
2022-11-19T07:52:52.890Z,9
2022-11-19T07:58:35.466Z,18
2022-11-19T08:15:53.690Z,106
2022-11-19T08:23:33.840Z,129
2022-11-19T08:25:30.107Z,185
2022-11-19T08:27:13.437Z,205
2022-11-19T08:28:56.821Z,325
2022-11-19T08:30:40.230Z,229
2022-11-19T08:32:23.649Z,206
2022-11-19T08:34:07.169Z,164
2022-11-19T08:35:50.483Z,190
2022-11-19T08:37:33.825Z,217
2022-11-19T08:41:00.337Z,214
2022-11-19T08:42:43.816Z,213
2022-11-19T08:44:27.328Z,208
2022-11-19T08:46:10.473Z,202
2022-11-19T08:47:54.009Z,196
2022-11-19T08:49:37.255Z,191
2022-11-19T08:51:20.664Z,188
2022-11-19T08:53:04.106Z,189
2022-11-19T08:56:30.547Z,222
2022-11-19T08:58:13.925Z,244
2022-11-19T08:59:57.314Z,259
2022-11-19T09:01:40.768Z,267
2022-11-19T09:03:24.168Z,269
2022-11-19T09:05:07.499Z,272
2022-11-19T09:06:50.982Z,292
2022-11-19T09:10:17.439Z,286
2022-11-19T09:12:00.856Z,256
2022-11-19T09:13:44.238Z,261
2022-11-19T09:15:27.598Z,283
2022-11-19T09:17:11.125Z,316
2022-11-19T09:18:54.699Z,349
2022-11-19T09:20:37.756Z,358
2022-11-19T09:22:21.289Z,438
2022-11-19T09:25:47.681Z,489
2022-11-19T09:27:31.043Z,444
2022-11-19T09:29:14.440Z,355
2022-11-19T09:30:57.802Z,262
2022-11-19T09:32:41.201Z,215
2022-11-19T09:34:24.744Z,251
2022-11-19T09:36:08.087Z,261
2022-11-19T09:37:51.382Z,278
2022-11-19T09:39:35.131Z,257
2022-11-19T09:41:18.504Z,239
2022-11-19T09:43:01.885Z,244
2022-11-19T09:44:45.498Z,265
2022-11-19T09:46:28.760Z,267
2022-11-19T09:48:12.078Z,274
2022-11-19T09:49:55.548Z,275
2022-11-19T09:51:38.927Z,259
2022-11-19T09:55:05.366Z,284
2022-11-19T09:56:48.739Z,319
2022-11-19T09:58:32.136Z,362
2022-11-19T10:00:15.554Z,405
2022-11-19T10:01:58.925Z,448
2022-11-19T10:03:42.322Z,459
2022-11-19T10:05:25.736Z,471
2022-11-19T10:07:09.132Z,461
2022-11-19T10:10:35.576Z,406
2022-11-19T10:12:19.007Z,393
2022-11-19T10:14:02.479Z,334
2022-11-19T10:15:45.870Z,280
2022-11-19T10:17:29.158Z,240
2022-11-19T10:19:12.561Z,197
2022-11-19T10:20:56.021Z,170
2022-11-19T10:22:39.353Z,175
2022-11-19T10:26:05.834Z,188
2022-11-19T10:27:49.238Z,167
2022-11-19T10:29:32.811Z,152
2022-11-19T10:31:16.102Z,138
2022-11-19T10:32:59.513Z,125
2022-11-19T10:34:42.942Z,119
2022-11-19T10:36:26.306Z,122
2022-11-19T10:38:09.772Z,145
2022-11-19T10:41:36.073Z,183
2022-11-19T10:43:19.460Z,182
2022-11-19T10:45:02.903Z,169
2022-11-19T10:46:46.268Z,148
2022-11-19T10:48:29.655Z,138
2022-11-19T10:50:13.156Z,147
2022-11-19T10:51:56.491Z,147
2022-11-19T10:53:39.872Z,153
2022-11-19T10:55:23.561Z,157
2022-11-19T10:57:07.000Z,161
2022-11-19T10:58:50.346Z,160
2022-11-19T11:00:33.743Z,164
2022-11-19T11:02:17.129Z,181
2022-11-19T11:04:00.516Z,220
2022-11-19T11:05:43.920Z,249
2022-11-19T11:07:27.308Z,287
2022-11-19T11:10:53.899Z,448
2022-11-19T11:12:37.294Z,525
2022-11-19T11:14:20.619Z,576
2022-11-19T11:16:03.972Z,712
2022-11-19T11:17:47.378Z,650
2022-11-19T11:19:30.766Z,576
2022-11-19T11:21:14.300Z,516
2022-11-19T11:22:57.562Z,465
2022-11-19T11:26:24.120Z,464
2022-11-19T11:28:07.506Z,448
2022-11-19T11:29:50.829Z,424
2022-11-19T11:31:34.211Z,365
2022-11-19T11:33:17.617Z,296
2022-11-19T11:35:00.999Z,235
2022-11-19T11:36:44.461Z,234
2022-11-19T11:41:53.657Z,229
2022-11-19T11:43:37.111Z,223
2022-11-19T11:45:20.457Z,207
2022-11-19T11:47:03.958Z,196
2022-11-19T11:48:47.259Z,175
2022-11-19T11:50:30.675Z,150
2022-11-19T11:52:14.037Z,133
2022-11-19T11:53:57.435Z,119
2022-11-19T11:59:06.736Z,96
2022-11-19T12:00:50.225Z,97
2022-11-19T12:02:33.539Z,96
2022-11-19T12:04:16.896Z,97
2022-11-19T12:06:00.370Z,107
2022-11-19T12:07:43.672Z,105
2022-11-19T12:09:27.218Z,126
2022-11-19T12:14:36.307Z,182
2022-11-19T12:16:19.688Z,165
2022-11-19T12:18:03.118Z,165
2022-11-19T12:19:46.476Z,161
2022-11-19T12:21:29.879Z,146
2022-11-19T12:23:13.441Z,142
2022-11-19T12:24:56.750Z,155
2022-11-19T12:26:40.076Z,160
2022-11-19T12:28:23.766Z,165
2022-11-19T12:30:07.223Z,159
2022-11-19T12:31:50.541Z,143
2022-11-19T12:33:34.116Z,133
2022-11-19T12:35:17.341Z,128
2022-11-19T12:37:00.740Z,142
2022-11-19T12:38:44.191Z,138
2022-11-19T12:40:27.599Z,129
2022-11-19T12:43:54.080Z,116
2022-11-19T12:45:37.416Z,112
2022-11-19T12:47:21.054Z,105
2022-11-19T12:49:04.297Z,91
2022-11-19T12:50:47.584Z,83
2022-11-19T12:52:30.975Z,78
2022-11-19T12:54:14.428Z,78
2022-11-19T12:55:57.777Z,77
2022-11-19T12:57:41.545Z,75
2022-11-19T12:59:24.910Z,80
2022-11-19T13:01:08.280Z,94
2022-11-19T13:02:51.671Z,105
2022-11-19T13:04:35.058Z,97
2022-11-19T13:06:18.582Z,86
2022-11-19T13:08:01.873Z,69
2022-11-19T13:09:45.268Z,62
2022-11-19T13:13:11.771Z,62
2022-11-19T13:14:55.127Z,57
2022-11-19T13:16:38.648Z,59
2022-11-19T13:18:21.914Z,57
2022-11-19T13:20:05.417Z,53
2022-11-19T13:21:48.708Z,52
2022-11-19T13:23:32.128Z,53
2022-11-19T13:25:15.493Z,48
2022-11-19T13:26:59.265Z,48
2022-11-19T13:28:42.599Z,45
2022-11-19T13:30:26.167Z,48
2022-11-19T13:32:09.387Z,52
2022-11-19T13:35:36.176Z,58
2022-11-19T13:37:19.657Z,64
2022-11-19T13:39:03.015Z,51
2022-11-19T13:40:46.678Z,46
2022-11-19T13:42:30.126Z,45
2022-11-19T13:44:13.460Z,43
2022-11-19T13:45:56.849Z,44
2022-11-19T13:47:40.261Z,45
2022-11-19T13:49:23.815Z,44
2022-11-19T13:51:07.108Z,49
2022-11-19T13:52:50.448Z,64
2022-11-19T13:56:16.915Z,63
2022-11-19T13:58:00.317Z,64
2022-11-19T13:59:43.868Z,74
2022-11-19T14:01:27.105Z,92
2022-11-19T14:03:10.548Z,103
2022-11-19T14:04:53.891Z,119
2022-11-19T14:06:37.299Z,135
2022-11-19T14:08:20.684Z,130
2022-11-19T14:10:04.436Z,132
2022-11-19T14:11:47.788Z,130
2022-11-19T14:13:31.171Z,119
2022-11-19T14:15:14.606Z,103
2022-11-19T14:16:57.992Z,85
2022-11-19T14:18:41.380Z,76
2022-11-19T14:20:24.774Z,72
2022-11-19T14:22:08.307Z,70
2022-11-19T14:23:51.854Z,58
2022-11-19T14:25:35.262Z,50
2022-11-19T14:27:18.680Z,49
2022-11-19T14:29:02.111Z,53
2022-11-19T14:30:45.459Z,52
2022-11-19T14:32:28.850Z,47
2022-11-19T14:34:12.291Z,43
2022-11-19T14:35:55.663Z,50
2022-11-19T14:37:39.340Z,57
2022-11-19T14:39:22.749Z,301
2022-11-19T14:41:06.258Z,297
2022-11-19T14:42:49.535Z,287
2022-11-19T14:44:32.966Z,279
2022-11-19T14:46:16.351Z,287
2022-11-19T14:47:59.769Z,306
2022-11-19T14:53:09.126Z,311
2022-11-19T14:54:52.364Z,309
2022-11-19T14:56:35.815Z,302
2022-11-19T14:58:19.177Z,312
2022-11-19T15:00:02.641Z,309
2022-11-19T15:01:46.034Z,73
2022-11-19T15:03:29.330Z,63
2022-11-19T15:06:55.806Z,33
2022-11-19T15:08:39.222Z,25
2022-11-19T15:10:22.601Z,19
2022-11-19T15:12:06.103Z,15
2022-11-19T15:13:49.431Z,17
2022-11-19T15:15:32.797Z,19
2022-11-19T15:17:16.237Z,18
2022-11-19T15:20:42.843Z,21
2022-11-19T15:22:26.245Z,22
2022-11-19T15:24:09.592Z,18
2022-11-19T15:25:53.037Z,16
2022-11-19T15:27:36.478Z,13
2022-11-19T15:29:19.834Z,10
2022-11-19T15:31:03.239Z,10
2022-11-19T15:32:46.627Z,12
2022-11-19T15:34:30.305Z,13
2022-11-19T15:36:13.666Z,10
2022-11-19T15:37:57.128Z,7
2022-11-19T15:39:40.336Z,9
2022-11-19T15:41:23.733Z,9
2022-11-19T15:43:07.190Z,6
2022-11-19T15:44:50.527Z,6
2022-11-19T15:46:33.959Z,5
2022-11-19T15:48:17.820Z,4
2022-11-19T15:50:01.171Z,4
2022-11-19T15:51:44.538Z,3
2022-11-19T15:53:27.950Z,3
2022-11-19T15:55:11.359Z,2
2022-11-19T15:56:54.741Z,2
2022-11-19T15:58:38.179Z,2
2022-11-19T16:00:21.479Z,2
2022-11-19T16:03:48.051Z,1
2022-11-19T16:05:31.477Z,2
2022-11-19T16:07:14.769Z,2
2022-11-19T16:08:58.243Z,2
2022-11-19T16:10:41.613Z,2
2022-11-19T16:12:24.969Z,1
2022-11-19T16:14:08.429Z,1
2022-11-19T16:19:17.606Z,9
2022-11-19T16:21:01.060Z,8
2022-11-19T16:22:44.405Z,8
2022-11-19T16:24:27.857Z,8
2022-11-19T16:26:11.069Z,9
2022-11-19T16:27:54.572Z,9
2022-11-19T16:29:37.981Z,9
2022-11-19T16:34:47.300Z,9
2022-11-19T16:36:30.672Z,9
2022-11-19T16:38:14.001Z,9
2022-11-19T16:39:57.336Z,9
2022-11-19T16:41:40.684Z,8
2022-11-19T16:43:24.105Z,9
2022-11-19T16:45:07.614Z,8
2022-11-19T16:46:50.904Z,10
2022-11-19T16:48:34.784Z,9
2022-11-19T16:50:18.127Z,10
2022-11-19T16:52:01.532Z,9
2022-11-19T16:53:44.960Z,9
2022-11-19T16:55:28.345Z,8
2022-11-19T16:57:11.708Z,10
2022-11-19T16:58:55.030Z,9
2022-11-19T17:00:38.540Z,9
2022-11-19T17:04:05.004Z,8
2022-11-19T17:05:48.361Z,9
2022-11-19T17:07:31.820Z,7
2022-11-19T17:09:15.186Z,9
2022-11-19T17:10:58.505Z,8
2022-11-19T17:12:41.859Z,10
2022-11-19T17:14:25.418Z,8
2022-11-19T17:16:08.758Z,9
2022-11-19T17:19:35.268Z,9
2022-11-19T17:21:18.551Z,7
2022-11-19T17:23:01.997Z,9
2022-11-19T17:24:45.405Z,9
2022-11-19T17:26:28.866Z,9
2022-11-19T17:28:12.057Z,10
2022-11-19T17:29:55.609Z,10
2022-11-19T17:31:39.063Z,10
2022-11-19T17:33:22.672Z,6
2022-11-19T17:35:06.067Z,9
2022-11-19T17:36:49.612Z,9
2022-11-19T17:38:32.967Z,9
2022-11-19T17:40:16.128Z,10
2022-11-19T17:41:59.668Z,9
2022-11-19T17:43:43.133Z,10
2022-11-19T17:45:26.464Z,9
2022-11-19T17:50:36.379Z,9
2022-11-19T17:52:19.598Z,9
2022-11-19T17:54:03.104Z,9
2022-11-19T17:55:46.374Z,9
2022-11-19T17:57:29.831Z,9
2022-11-19T17:59:13.184Z,9
2022-11-19T18:00:56.596Z,9
2022-11-19T18:04:23.110Z,10
2022-11-19T18:06:06.593Z,9
2022-11-19T18:07:49.929Z,9
2022-11-19T18:09:33.360Z,10
2022-11-19T18:11:16.885Z,9
2022-11-19T18:13:00.205Z,10
2022-11-19T18:14:43.415Z,9
2022-11-19T18:16:26.976Z,10
2022-11-19T18:19:53.449Z,9
2022-11-19T18:21:36.912Z,9
2022-11-19T18:23:20.192Z,9
2022-11-19T18:25:03.473Z,9
2022-11-19T18:26:47.007Z,9
2022-11-19T18:28:30.463Z,9
2022-11-19T18:30:13.864Z,9
2022-11-19T18:35:23.038Z,9
2022-11-19T18:37:06.408Z,9
2022-11-19T18:38:49.810Z,9
2022-11-19T18:40:33.200Z,9
2022-11-19T18:42:16.688Z,9
2022-11-19T18:44:00.068Z,9
2022-11-19T18:45:43.437Z,9
2022-11-19T18:47:26.798Z,9
2022-11-19T18:50:53.153Z,8
2022-11-19T18:52:36.720Z,9
2022-11-19T18:54:20.108Z,10
2022-11-19T18:56:03.559Z,9
2022-11-19T18:57:46.884Z,9
2022-11-19T18:59:30.138Z,9
2022-11-19T19:01:13.698Z,8
2022-11-19T19:02:57.068Z,9
2022-11-19T19:04:40.734Z,9
2022-11-19T19:06:24.194Z,10
2022-11-19T19:08:07.599Z,9
2022-11-19T19:09:50.811Z,9
2022-11-19T19:11:34.324Z,9
2022-11-19T19:13:17.728Z,10
2022-11-19T19:15:01.009Z,9
2022-11-19T19:16:44.534Z,10
2022-11-19T19:20:11.073Z,9
2022-11-19T19:21:54.424Z,15
2022-11-19T19:23:37.886Z,15
2022-11-19T19:25:21.208Z,8
2022-11-19T19:27:04.634Z,9
2022-11-19T19:28:47.906Z,9
2022-11-19T19:30:31.462Z,9
2022-11-19T19:32:14.844Z,9
2022-11-19T19:37:24.028Z,9
2022-11-19T19:39:07.316Z,9
2022-11-19T19:40:50.882Z,9
2022-11-19T19:42:34.241Z,9
2022-11-19T19:44:17.480Z,9
2022-11-19T19:46:01.029Z,9
2022-11-19T19:47:44.272Z,9
2022-11-19T19:49:27.704Z,9
2022-11-19T19:51:11.462Z,9
2022-11-19T19:52:54.767Z,9
2022-11-19T19:54:38.290Z,9
2022-11-19T19:56:21.564Z,9
2022-11-19T19:58:04.933Z,8
2022-11-19T19:59:48.435Z,9
2022-11-19T20:01:31.755Z,9
2022-11-19T20:03:15.122Z,9
2022-11-19T20:04:58.888Z,9
2022-11-19T20:06:42.232Z,9
2022-11-19T20:08:25.654Z,9
2022-11-19T20:10:09.085Z,9
2022-11-19T20:11:52.445Z,9
2022-11-19T20:13:35.865Z,9
2022-11-19T20:15:19.313Z,9
2022-11-19T20:17:02.668Z,9
2022-11-19T20:20:29.168Z,9
2022-11-19T20:22:12.492Z,9
2022-11-19T20:23:56.013Z,9
2022-11-19T20:25:39.302Z,9
2022-11-19T20:27:22.669Z,9
2022-11-19T20:29:06.048Z,9
2022-11-19T20:30:49.478Z,8
2022-11-19T20:32:32.910Z,9
2022-11-19T20:34:16.744Z,9
2022-11-19T20:36:00.156Z,9
2022-11-19T20:37:43.377Z,8
2022-11-19T20:39:26.762Z,10
2022-11-19T20:41:10.153Z,9
2022-11-19T20:42:53.583Z,9
2022-11-19T20:44:36.995Z,9
2022-11-19T20:46:20.395Z,9
2022-11-19T20:49:46.973Z,9
2022-11-19T20:51:30.379Z,9
2022-11-19T20:53:13.763Z,9
2022-11-19T20:54:57.076Z,9
2022-11-19T20:56:40.514Z,9
2022-11-19T20:58:23.919Z,9
2022-11-19T21:00:07.330Z,10
2022-11-19T21:01:50.692Z,9
2022-11-19T21:05:17.318Z,8
2022-11-19T21:07:00.562Z,9
2022-11-19T21:08:43.867Z,9
2022-11-19T21:10:27.306Z,9
2022-11-19T21:12:10.832Z,9
2022-11-19T21:13:54.242Z,9
2022-11-19T21:15:37.479Z,8
2022-11-19T21:20:46.795Z,8
2022-11-19T21:22:30.146Z,9
2022-11-19T21:24:13.610Z,9
2022-11-19T21:25:57.026Z,8
2022-11-19T21:27:40.251Z,9
2022-11-19T21:29:23.734Z,9
2022-11-19T21:31:07.271Z,9
2022-11-19T21:32:50.448Z,9
2022-11-19T21:36:17.102Z,9
2022-11-19T21:38:00.498Z,9
2022-11-19T21:39:43.709Z,9
2022-11-19T21:41:27.309Z,9
2022-11-19T21:43:10.504Z,9
2022-11-19T21:44:54.057Z,9
2022-11-19T21:46:37.448Z,8
2022-11-19T21:48:20.865Z,11
2022-11-19T21:51:47.162Z,9
2022-11-19T21:53:30.578Z,9
2022-11-19T21:55:13.950Z,10
2022-11-19T21:56:57.351Z,9
2022-11-19T21:58:40.741Z,9
2022-11-19T22:00:24.242Z,9
2022-11-19T22:02:07.556Z,9
2022-11-19T22:03:50.952Z,9
2022-11-19T22:07:17.416Z,9
2022-11-19T22:09:00.815Z,9
2022-11-19T22:10:44.193Z,9
2022-11-19T22:12:27.601Z,8
2022-11-19T22:14:10.978Z,8
2022-11-19T22:15:54.374Z,8
2022-11-19T22:17:37.790Z,9
2022-11-19T22:19:21.181Z,9
2022-11-19T22:24:30.433Z,9
2022-11-19T22:26:13.822Z,9
2022-11-19T22:27:57.215Z,9
2022-11-19T22:29:40.603Z,9
2022-11-19T22:31:24.000Z,8
2022-11-19T22:33:07.407Z,8
2022-11-19T22:34:50.803Z,9
2022-11-19T22:36:34.199Z,9
2022-11-19T22:41:43.429Z,8
2022-11-19T22:43:26.848Z,9
2022-11-19T22:45:10.228Z,8
2022-11-19T22:46:53.613Z,9
2022-11-19T22:48:37.025Z,9
2022-11-19T22:50:20.411Z,8
2022-11-19T22:52:03.808Z,9
2022-11-19T22:53:47.218Z,8
2022-11-19T22:57:13.675Z,9
2022-11-19T22:58:57.062Z,8
2022-11-19T23:00:40.464Z,8
2022-11-19T23:02:23.884Z,8
2022-11-19T23:04:07.281Z,9
2022-11-19T23:05:50.649Z,9
2022-11-19T23:07:34.059Z,9
2022-11-19T23:09:17.441Z,9
2022-11-19T23:14:26.695Z,9
2022-11-19T23:16:10.097Z,9
2022-11-19T23:17:53.487Z,9
2022-11-19T23:19:36.897Z,9
2022-11-19T23:21:20.281Z,8
2022-11-19T23:23:03.683Z,8
2022-11-19T23:24:47.081Z,9
2022-11-19T23:26:30.480Z,8
2022-11-19T23:29:56.947Z,8
2022-11-19T23:31:40.336Z,8
2022-11-19T23:33:23.759Z,9
2022-11-19T23:35:07.124Z,9
2022-11-19T23:36:50.515Z,9
2022-11-19T23:38:33.954Z,8
2022-11-19T23:40:17.306Z,8
2022-11-19T23:42:00.731Z,8
2022-11-19T23:45:27.189Z,9
2022-11-19T23:47:10.581Z,9
2022-11-19T23:48:53.968Z,9
2022-11-19T23:50:37.351Z,9
2022-11-19T23:52:20.746Z,8
2022-11-19T23:54:04.155Z,9
2022-11-19T23:55:47.566Z,8
2022-11-19T23:57:30.945Z,8
